Time;durP1;ratioP1;P1;durP2;ratioP2;P2;SDS_P1;SDS_P2;PMS_P1;PMS_P2;Temp;Humidity;BMP_temperature;BMP_pressure;BME280_temperature;BME280_humidity;BME280_pressure;Samples;Min_cycle;Max_cycle;Signal;HPM_P1;HPM_P2
2023/07/28 00:01:05;;;;;;;1.23;1.13;;;17.40;99.90;;;;;;5046580;28;20211;-73
2023/07/28 00:03:31;;;;;;;3.45;1.35;;;17.40;99.90;;;;;;5051488;28;20208;-75
2023/07/28 00:05:56;;;;;;;1.67;1.58;;;17.40;99.90;;;;;;5049198;28;20204;-75
2023/07/28 00:08:22;;;;;;;3.08;1.42;;;17.30;99.90;;;;;;5049347;28;20243;-76
2023/07/28 00:10:48;;;;;;;3.00;1.70;;;17.40;99.90;;;;;;5042653;28;20216;-76
2023/07/28 00:13:13;;;;;;;1.77;1.67;;;17.40;99.90;;;;;;5045152;28;20199;-74
2023/07/28 00:15:39;;;;;;;2.50;1.75;;;17.40;99.90;;;;;;5058551;28;20204;-76
2023/07/28 00:18:04;;;;;;;2.03;1.73;;;17.40;99.90;;;;;;5044695;28;20199;-72
2023/07/28 00:20:30;;;;;;;1.90;1.80;;;17.50;99.90;;;;;;5043951;28;20227;-75
2023/07/28 00:22:56;;;;;;;2.15;1.95;;;17.50;99.90;;;;;;5047519;28;20171;-74
2023/07/28 00:25:22;;;;;;;2.63;1.98;;;17.50;99.90;;;;;;5047214;28;20182;-75
2023/07/28 00:27:47;;;;;;;4.25;2.15;;;17.60;99.90;;;;;;5049810;28;20634;-75
2023/07/28 00:30:13;;;;;;;2.53;2.33;;;17.50;99.90;;;;;;5048209;28;20335;-74
2023/07/28 00:32:39;;;;;;;2.75;2.55;;;17.50;99.90;;;;;;5049240;28;20204;-75
2023/07/28 00:35:05;;;;;;;5.70;2.33;;;17.60;99.90;;;;;;5046279;28;20646;-74
2023/07/28 00:37:31;;;;;;;2.85;2.65;;;17.60;99.90;;;;;;5049626;28;20712;-74
2023/07/28 00:39:57;;;;;;;2.83;2.60;;;17.70;99.90;;;;;;5050514;28;20204;-72
2023/07/28 00:42:23;;;;;;;3.53;2.30;;;17.60;99.90;;;;;;5044262;28;20200;-74
2023/07/28 00:44:48;;;;;;;3.22;2.70;;;17.60;99.90;;;;;;5047149;28;20214;-73
2023/07/28 00:47:14;;;;;;;3.30;2.45;;;17.70;99.90;;;;;;5047558;28;20246;-75
2023/07/28 00:49:40;;;;;;;2.17;1.98;;;17.70;99.90;;;;;;5041925;28;20188;-74
2023/07/28 00:52:08;;;;;;;3.20;2.50;;;17.60;99.90;;;;;;5044878;28;20247;-74
2023/07/28 00:54:34;;;;;;;2.80;2.30;;;17.70;99.90;;;;;;5045187;28;20215;-74
2023/07/28 00:57:01;;;;;;;2.33;2.13;;;17.70;99.90;;;;;;5046047;28;20230;-74
2023/07/28 00:59:27;;;;;;;2.22;1.83;;;17.80;99.90;;;;;;5060030;28;20294;-74
2023/07/28 01:01:53;;;;;;;2.75;2.15;;;17.80;99.90;;;;;;5046592;28;20874;-73
2023/07/28 01:04:19;;;;;;;2.05;1.92;;;17.80;99.90;;;;;;5050159;28;20180;-74
2023/07/28 01:07:01;;;;;;;3.05;2.30;;;17.70;99.90;;;;;;5047727;28;20215;-74
2023/07/28 01:09:34;;;;;;;6.00;3.35;;;17.90;99.90;;;;;;5046440;28;20264;-74
2023/07/28 01:12:01;;;;;;;2.75;2.40;;;17.90;99.90;;;;;;5049454;28;20216;-74
2023/07/28 01:14:27;;;;;;;2.15;1.90;;;17.90;99.90;;;;;;5049454;28;20227;-74
2023/07/28 01:16:53;;;;;;;1.85;1.50;;;17.90;99.90;;;;;;5050083;28;20245;-75
2023/07/28 01:19:21;;;;;;;1.83;1.70;;;17.90;99.90;;;;;;5050166;28;20222;-74
2023/07/28 01:22:25;;;;;;;3.75;2.47;;;17.90;99.90;;;;;;5039435;28;20204;-74
2023/07/28 01:25:05;;;;;;;3.15;2.10;;;17.90;99.90;;;;;;5017555;28;20261;-74
2023/07/28 01:27:32;;;;;;;2.33;1.80;;;18.00;99.90;;;;;;5040532;28;20594;-74
2023/07/28 01:29:58;;;;;;;2.85;1.50;;;18.00;99.90;;;;;;5058658;28;20627;-74
2023/07/28 01:32:23;;;;;;;2.28;1.77;;;18.00;99.90;;;;;;5046331;28;20211;-74
2023/07/28 01:34:49;;;;;;;3.00;2.35;;;18.00;99.90;;;;;;5047915;28;20175;-74
2023/07/28 01:37:14;;;;;;;18.75;12.77;;;18.00;99.90;;;;;;5046280;28;20191;-74
2023/07/28 01:39:40;;;;;;;14.10;7.68;;;18.00;99.90;;;;;;5047572;28;20212;-74
2023/07/28 01:42:06;;;;;;;6.68;5.22;;;18.00;99.90;;;;;;5048085;28;20618;-74
2023/07/28 01:44:31;;;;;;;11.27;9.02;;;18.00;99.90;;;;;;5046843;28;20592;-74
2023/07/28 01:46:57;;;;;;;7.25;5.75;;;18.00;99.90;;;;;;5047989;28;20193;-75
2023/07/28 01:49:22;;;;;;;4.15;3.30;;;18.00;99.90;;;;;;5044606;28;20309;-73
2023/07/28 01:51:48;;;;;;;7.38;5.93;;;18.00;99.90;;;;;;5049088;28;20219;-74
2023/07/28 01:54:14;;;;;;;4.05;3.63;;;18.00;99.90;;;;;;5045712;28;20272;-75
2023/07/28 01:56:39;;;;;;;12.30;8.68;;;18.00;99.90;;;;;;5041376;28;20215;-74
2023/07/28 01:59:05;;;;;;;11.93;8.20;;;18.00;99.90;;;;;;5046555;28;20618;-73
2023/07/28 02:01:30;;;;;;;8.23;5.72;;;18.00;99.90;;;;;;5043212;28;20207;-74
2023/07/28 02:03:56;;;;;;;7.63;4.05;;;18.00;99.90;;;;;;5047459;28;20206;-75
2023/07/28 02:06:22;;;;;;;6.53;4.45;;;18.00;99.90;;;;;;5045279;28;20216;-73
2023/07/28 02:08:48;;;;;;;5.35;3.83;;;18.00;99.90;;;;;;5042455;28;20223;-74
2023/07/28 02:11:13;;;;;;;5.70;4.47;;;18.00;99.90;;;;;;5046787;28;20223;-73
2023/07/28 02:13:39;;;;;;;7.43;5.28;;;18.10;99.90;;;;;;5043494;28;20220;-74
2023/07/28 02:16:05;;;;;;;4.63;3.95;;;18.10;99.90;;;;;;5046164;28;20204;-73
2023/07/28 02:18:30;;;;;;;8.50;3.95;;;18.10;99.90;;;;;;5056443;28;20218;-75
2023/07/28 02:20:56;;;;;;;6.13;4.63;;;18.10;99.90;;;;;;5047609;28;20238;-74
2023/07/28 02:23:21;;;;;;;5.60;4.28;;;18.10;99.90;;;;;;5047568;28;20211;-75
2023/07/28 02:25:47;;;;;;;6.45;5.20;;;18.10;99.90;;;;;;5037832;28;20662;-74
2023/07/28 02:28:12;;;;;;;6.45;4.55;;;18.10;99.90;;;;;;5043370;28;20172;-74
2023/07/28 02:30:38;;;;;;;6.80;4.95;;;18.10;99.90;;;;;;5046093;28;20294;-75
2023/07/28 02:33:04;;;;;;;5.95;4.75;;;18.10;99.90;;;;;;5033527;28;20208;-74
2023/07/28 02:35:31;;;;;;;6.22;4.78;;;18.10;99.90;;;;;;5045037;28;20227;-75
2023/07/28 02:37:57;;;;;;;5.82;4.13;;;18.00;99.90;;;;;;5063909;28;20625;-74
2023/07/28 02:40:23;;;;;;;8.23;5.57;;;18.00;99.90;;;;;;5044333;28;20210;-74
2023/07/28 02:42:48;;;;;;;6.90;4.88;;;18.10;99.90;;;;;;5048190;28;20706;-75
2023/07/28 02:45:14;;;;;;;7.57;5.18;;;18.10;99.90;;;;;;5045844;28;20219;-74
2023/07/28 02:47:39;;;;;;;6.13;5.53;;;18.10;99.90;;;;;;5045648;28;20808;-74
2023/07/28 02:50:05;;;;;;;5.30;4.78;;;18.10;99.90;;;;;;5048007;28;20223;-74
2023/07/28 02:52:31;;;;;;;7.05;5.30;;;18.10;99.90;;;;;;5048441;28;20272;-75
2023/07/28 02:54:56;;;;;;;9.07;5.85;;;18.20;99.90;;;;;;5045735;28;20290;-74
2023/07/28 02:57:22;;;;;;;8.65;5.55;;;18.10;99.90;;;;;;5046728;28;20211;-75
2023/07/28 02:59:48;;;;;;;5.85;5.07;;;18.10;99.90;;;;;;5041654;28;20211;-75
2023/07/28 03:02:13;;;;;;;5.22;4.50;;;18.10;99.90;;;;;;5047434;28;20872;-74
2023/07/28 03:04:39;;;;;;;6.03;4.97;;;18.20;99.90;;;;;;5047677;28;20198;-75
2023/07/28 03:07:05;;;;;;;6.13;5.10;;;18.10;99.90;;;;;;5048216;28;20212;-72
2023/07/28 03:09:30;;;;;;;4.85;4.20;;;18.10;99.90;;;;;;5047184;28;20232;-75
2023/07/28 03:11:56;;;;;;;6.88;4.93;;;18.20;99.90;;;;;;5040990;28;20721;-75
2023/07/28 03:14:22;;;;;;;6.28;4.70;;;18.20;99.90;;;;;;5044567;28;20212;-74
2023/07/28 03:16:47;;;;;;;7.85;5.10;;;18.20;99.90;;;;;;5044363;28;20735;-73
2023/07/28 03:19:13;;;;;;;6.53;5.47;;;18.20;99.90;;;;;;5041326;28;20638;-76
2023/07/28 03:21:38;;;;;;;6.47;5.25;;;18.20;99.90;;;;;;5040538;28;20269;-74
2023/07/28 03:24:04;;;;;;;5.47;4.85;;;18.20;99.90;;;;;;5045683;28;20208;-75
2023/07/28 03:26:30;;;;;;;11.88;5.40;;;18.20;99.90;;;;;;5045724;28;20840;-71
2023/07/28 03:28:55;;;;;;;7.93;5.28;;;18.20;99.90;;;;;;5046342;28;20650;-73
2023/07/28 03:31:21;;;;;;;6.78;5.22;;;18.20;99.90;;;;;;5043826;28;20238;-74
2023/07/28 03:33:47;;;;;;;5.75;4.25;;;18.20;99.90;;;;;;5047530;28;20227;-74
2023/07/28 03:36:13;;;;;;;5.90;5.30;;;18.20;99.90;;;;;;5046935;28;20662;-75
2023/07/28 03:38:38;;;;;;;6.40;5.10;;;18.20;99.90;;;;;;5046258;28;20602;-74
2023/07/28 03:41:04;;;;;;;9.95;5.60;;;18.20;99.90;;;;;;5047036;28;20196;-73
2023/07/28 03:43:30;;;;;;;9.32;5.57;;;18.20;99.90;;;;;;5042649;28;20270;-74
2023/07/28 03:45:55;;;;;;;8.32;5.55;;;18.20;99.90;;;;;;5042813;28;20235;-75
2023/07/28 03:48:21;;;;;;;8.88;5.40;;;18.20;99.90;;;;;;5058692;28;20219;-74
2023/07/28 03:50:46;;;;;;;9.32;5.88;;;18.20;99.90;;;;;;5043464;28;20608;-75
2023/07/28 03:53:12;;;;;;;7.18;5.43;;;18.20;99.90;;;;;;5044514;28;21002;-74
2023/07/28 03:55:37;;;;;;;8.05;5.30;;;18.20;99.90;;;;;;5047840;28;20172;-75
2023/07/28 03:58:03;;;;;;;7.47;5.07;;;18.20;99.90;;;;;;5037731;28;20607;-75
2023/07/28 04:00:29;;;;;;;7.85;5.20;;;18.20;99.90;;;;;;5044291;28;20204;-75
2023/07/28 04:02:55;;;;;;;8.52;5.55;;;18.20;99.90;;;;;;5045143;28;20200;-74
2023/07/28 04:05:20;;;;;;;5.78;4.97;;;18.30;99.90;;;;;;5047736;28;20286;-74
2023/07/28 04:07:46;;;;;;;5.78;4.90;;;18.30;99.90;;;;;;5047286;28;20255;-76
2023/07/28 04:10:12;;;;;;;5.80;5.20;;;18.30;99.90;;;;;;5042364;28;20249;-72
2023/07/28 04:12:37;;;;;;;6.25;4.93;;;18.30;99.90;;;;;;5056894;28;20204;-74
2023/07/28 04:15:03;;;;;;;7.00;5.70;;;18.20;99.90;;;;;;5047806;28;20265;-75
2023/07/28 04:17:29;;;;;;;8.35;5.82;;;18.30;99.90;;;;;;5046476;28;20218;-75
2023/07/28 04:19:54;;;;;;;6.38;5.55;;;18.30;99.90;;;;;;5050579;28;20190;-74
2023/07/28 04:22:21;;;;;;;7.68;5.95;;;18.30;99.90;;;;;;5051280;28;20226;-75
2023/07/28 04:24:47;;;;;;;6.55;5.60;;;18.40;99.90;;;;;;5050911;28;20235;-74
2023/07/28 04:27:14;;;;;;;7.85;5.85;;;18.40;99.90;;;;;;5042748;28;20256;-75
2023/07/28 04:29:39;;;;;;;6.75;5.65;;;18.40;99.90;;;;;;5044725;28;20659;-76
2023/07/28 04:32:05;;;;;;;6.60;5.50;;;18.40;99.90;;;;;;5042091;28;20204;-74
2023/07/28 04:34:33;;;;;;;7.90;5.95;;;18.50;99.90;;;;;;5050264;28;20179;-75
2023/07/28 04:36:59;;;;;;;8.88;6.55;;;18.50;99.90;;;;;;5046913;28;20586;-75
2023/07/28 04:39:25;;;;;;;9.07;5.88;;;18.60;99.90;;;;;;5041573;28;20318;-75
2023/07/28 04:41:50;;;;;;;6.30;5.55;;;18.70;99.90;;;;;;5050653;28;20211;-75
2023/07/28 04:44:17;;;;;;;8.05;5.53;;;18.70;99.90;;;;;;5049423;28;20211;-76
2023/07/28 04:46:43;;;;;;;6.97;5.90;;;18.60;99.90;;;;;;5060389;28;20179;-75
2023/07/28 04:49:08;;;;;;;7.00;5.75;;;18.60;99.90;;;;;;5045511;28;20250;-75
2023/07/28 04:51:34;;;;;;;6.50;5.60;;;18.60;99.90;;;;;;5050496;28;20215;-75
2023/07/28 04:53:59;;;;;;;7.05;6.35;;;18.50;99.90;;;;;;5049805;28;20299;-75
2023/07/28 04:56:25;;;;;;;6.50;5.90;;;18.50;99.90;;;;;;5050836;28;20624;-76
2023/07/28 04:58:50;;;;;;;8.82;6.30;;;18.60;99.90;;;;;;5055018;28;20183;-75
2023/07/28 05:01:16;;;;;;;7.28;5.72;;;18.60;99.90;;;;;;5043105;28;20192;-75
2023/07/28 05:03:42;;;;;;;6.43;5.72;;;18.60;99.90;;;;;;5050391;28;20260;-75
2023/07/28 05:06:07;;;;;;;7.60;5.75;;;18.60;99.90;;;;;;5062404;28;20200;-75
2023/07/28 05:08:33;;;;;;;8.32;5.72;;;18.60;99.90;;;;;;5044073;28;20642;-75
2023/07/28 05:10:58;;;;;;;7.30;6.13;;;18.60;99.90;;;;;;5041525;28;20219;-76
2023/07/28 05:13:24;;;;;;;8.63;6.20;;;18.70;99.90;;;;;;5047047;28;20276;-75
2023/07/28 05:15:49;;;;;;;8.07;6.25;;;18.70;99.90;;;;;;5046348;28;20213;-75
2023/07/28 05:18:15;;;;;;;8.13;6.18;;;18.70;99.90;;;;;;5049142;28;20215;-76
2023/07/28 05:20:41;;;;;;;7.65;6.07;;;18.80;99.90;;;;;;5047987;28;20219;-75
2023/07/28 05:23:06;;;;;;;7.50;5.82;;;18.80;99.90;;;;;;5046234;28;20223;-75
2023/07/28 05:25:32;;;;;;;6.72;5.88;;;18.90;99.90;;;;;;5045226;28;20210;-75
2023/07/28 05:27:58;;;;;;;7.72;5.68;;;18.80;99.90;;;;;;5047760;28;20200;-75
2023/07/28 05:30:23;;;;;;;6.35;5.75;;;18.80;99.90;;;;;;5048454;28;20216;-75
2023/07/28 05:32:49;;;;;;;8.70;5.82;;;18.80;99.90;;;;;;5048257;28;20207;-75
2023/07/28 05:35:15;;;;;;;8.77;6.43;;;18.90;99.90;;;;;;5049772;28;20282;-75
2023/07/28 05:37:41;;;;;;;8.68;6.03;;;18.90;99.90;;;;;;5046945;28;20176;-77
2023/07/28 05:40:07;;;;;;;5.93;5.35;;;18.90;99.90;;;;;;5041893;28;20222;-75
2023/07/28 05:42:33;;;;;;;7.70;5.40;;;18.90;99.90;;;;;;5042558;28;20203;-75
2023/07/28 05:44:59;;;;;;;6.00;5.40;;;18.90;99.90;;;;;;5039834;28;20211;-75
2023/07/28 05:47:24;;;;;;;6.00;5.40;;;18.90;99.90;;;;;;5043575;28;20213;-75
2023/07/28 05:49:53;;;;;;;9.30;5.47;;;18.90;99.90;;;;;;5043190;28;20199;-75
2023/07/28 05:52:19;;;;;;;8.18;5.22;;;18.90;99.90;;;;;;5044704;28;20290;-75
2023/07/28 05:54:45;;;;;;;6.40;5.18;;;18.90;99.90;;;;;;5046197;28;20697;-74
2023/07/28 05:57:10;;;;;;;6.82;5.57;;;18.90;99.90;;;;;;5048056;28;20227;-75
2023/07/28 05:59:36;;;;;;;6.30;5.70;;;18.90;99.90;;;;;;5045836;28;20212;-77
2023/07/28 06:02:02;;;;;;;5.65;4.95;;;19.00;99.90;;;;;;5047009;28;20586;-76
2023/07/28 06:04:28;;;;;;;7.18;5.25;;;19.00;99.90;;;;;;5048241;28;20180;-75
2023/07/28 06:06:53;;;;;;;5.72;5.13;;;19.00;99.90;;;;;;5047533;28;20218;-75
2023/07/28 06:09:19;;;;;;;6.72;5.00;;;19.00;99.90;;;;;;5043649;28;20243;-75
2023/07/28 06:11:44;;;;;;;6.22;4.78;;;18.90;99.90;;;;;;5048934;28;20211;-76
2023/07/28 06:14:10;;;;;;;5.80;5.30;;;18.90;99.90;;;;;;5037900;28;20208;-75
2023/07/28 06:16:36;;;;;;;7.45;5.47;;;18.80;99.90;;;;;;5046070;28;20172;-74
2023/07/28 06:19:01;;;;;;;6.38;5.25;;;18.80;99.90;;;;;;5038703;28;20199;-75
2023/07/28 06:21:27;;;;;;;6.50;5.25;;;18.90;99.90;;;;;;5041752;28;20219;-76
2023/07/28 06:23:53;;;;;;;7.97;4.68;;;18.90;99.90;;;;;;5042512;28;20204;-75
2023/07/28 06:26:18;;;;;;;6.82;5.10;;;18.80;99.90;;;;;;5042609;28;20275;-75
2023/07/28 06:28:45;;;;;;;6.10;4.68;;;18.80;99.90;;;;;;5049354;28;20175;-75
2023/07/28 06:31:10;;;;;;;6.18;4.97;;;18.80;99.90;;;;;;5040933;28;20215;-75
2023/07/28 06:33:36;;;;;;;5.55;4.95;;;18.90;99.90;;;;;;5044597;28;20210;-74
2023/07/28 06:36:04;;;;;;;6.15;4.53;;;18.90;99.90;;;;;;5044375;28;20269;-75
2023/07/28 06:38:30;;;;;;;7.25;4.70;;;19.00;99.90;;;;;;5045404;28;20223;-75
2023/07/28 06:40:55;;;;;;;8.48;4.65;;;19.20;99.90;;;;;;5055749;28;20665;-75
2023/07/28 06:43:21;;;;;;;6.65;3.90;;;19.20;99.90;;;;;;5047327;28;20267;-75
2023/07/28 06:45:47;;;;;;;4.22;3.75;;;19.20;99.90;;;;;;5044990;28;20291;-74
2023/07/28 06:48:12;;;;;;;4.68;4.20;;;19.20;99.90;;;;;;5048268;28;20195;-75
2023/07/28 06:50:38;;;;;;;5.07;4.57;;;19.20;99.90;;;;;;5038978;28;20262;-75
2023/07/28 06:53:04;;;;;;;4.40;4.00;;;19.10;99.90;;;;;;5042779;28;20181;-74
2023/07/28 06:55:30;;;;;;;5.38;4.63;;;19.20;99.90;;;;;;5060539;28;20180;-76
2023/07/28 06:57:56;;;;;;;4.75;3.88;;;19.50;99.90;;;;;;5046597;28;20262;-74
2023/07/28 07:00:21;;;;;;;5.47;4.05;;;19.70;99.90;;;;;;5047659;28;20249;-76
2023/07/28 07:02:47;;;;;;;3.58;3.28;;;20.00;99.90;;;;;;5048349;28;20208;-75
2023/07/28 07:05:12;;;;;;;7.68;3.83;;;20.00;99.90;;;;;;5048262;28;20618;-75
2023/07/28 07:07:39;;;;;;;6.20;3.80;;;20.10;99.90;;;;;;5046540;28;20195;-75
2023/07/28 07:10:06;;;;;;;4.88;3.53;;;20.20;99.90;;;;;;5047638;28;20272;-73
2023/07/28 07:12:31;;;;;;;3.63;3.33;;;20.30;99.90;;;;;;5047813;28;20204;-75
2023/07/28 07:14:57;;;;;;;5.03;2.60;;;20.50;99.90;;;;;;5047982;28;20259;-74
2023/07/28 07:17:23;;;;;;;3.38;2.90;;;20.50;99.90;;;;;;5048658;28;20199;-75
2023/07/28 07:19:48;;;;;;;3.35;2.83;;;20.40;99.90;;;;;;5048184;28;20647;-75
2023/07/28 07:22:14;;;;;;;3.40;3.10;;;20.30;99.90;;;;;;5047729;28;20187;-75
2023/07/28 07:24:40;;;;;;;3.22;2.67;;;20.40;99.90;;;;;;5049601;28;20256;-75
2023/07/28 07:27:06;;;;;;;4.50;3.00;;;20.50;99.90;;;;;;5044028;28;20338;-75
2023/07/28 07:29:31;;;;;;;6.53;2.78;;;20.60;99.90;;;;;;5039424;28;20216;-74
2023/07/28 07:31:57;;;;;;;2.85;2.65;;;20.70;99.90;;;;;;5040330;28;20199;-74
2023/07/28 07:34:23;;;;;;;3.70;2.42;;;20.80;99.90;;;;;;5039960;28;20708;-75
2023/07/28 07:36:49;;;;;;;3.15;2.85;;;21.00;99.90;;;;;;5042585;28;20308;-75
2023/07/28 07:39:15;;;;;;;2.20;2.00;;;21.20;99.90;;;;;;5041602;28;20195;-74
2023/07/28 07:41:41;;;;;;;3.00;1.65;;;21.50;99.90;;;;;;5043079;28;20669;-75
2023/07/28 07:44:07;;;;;;;2.58;1.80;;;21.40;99.90;;;;;;5044227;28;20207;-74
2023/07/28 07:46:32;;;;;;;3.63;2.55;;;21.80;99.90;;;;;;5046852;28;20176;-74
2023/07/28 07:48:58;;;;;;;1.35;1.25;;;22.50;99.90;;;;;;5045748;28;20602;-74
2023/07/28 07:51:24;;;;;;;1.70;1.60;;;22.80;99.90;;;;;;5048096;28;20219;-74
2023/07/28 07:53:49;;;;;;;1.30;1.20;;;22.80;99.90;;;;;;5051619;28;20214;-75
2023/07/28 07:56:15;;;;;;;3.58;1.52;;;22.50;99.90;;;;;;5049746;28;20585;-74
2023/07/28 07:58:41;;;;;;;2.75;1.35;;;22.40;99.90;;;;;;5049282;28;20173;-75
2023/07/28 08:01:06;;;;;;;2.72;1.00;;;24.20;99.90;;;;;;5049494;28;20674;-75
2023/07/28 08:03:32;;;;;;;1.25;1.00;;;26.60;99.90;;;;;;5046372;28;20217;-75
2023/07/28 08:05:58;;;;;;;2.60;0.90;;;28.40;99.90;;;;;;5047595;28;20294;-75
2023/07/28 08:08:23;;;;;;;1.25;0.95;;;29.80;99.90;;;;;;5047267;28;20253;-76
2023/07/28 08:10:50;;;;;;;1.58;0.90;;;31.20;99.90;;;;;;5046533;28;20253;-75
2023/07/28 08:13:16;;;;;;;2.60;0.88;;;31.40;99.90;;;;;;5047833;28;20686;-75
2023/07/28 08:15:45;;;;;;;3.05;1.00;;;31.50;99.90;;;;;;5045050;28;20204;-75
2023/07/28 08:18:14;;;;;;;0.90;0.90;;;30.40;99.90;;;;;;5046979;28;20214;-75
2023/07/28 08:20:40;;;;;;;1.55;1.17;;;30.00;99.90;;;;;;5043359;28;20227;-75
2023/07/28 08:23:06;;;;;;;1.27;1.00;;;28.70;99.90;;;;;;5045351;28;20621;-74
2023/07/28 08:25:34;;;;;;;2.35;1.63;;;27.30;99.90;;;;;;5050246;28;20246;-74
2023/07/28 08:28:00;;;;;;;2.13;1.60;;;25.80;99.90;;;;;;5049713;28;20282;-75
2023/07/28 08:30:25;;;;;;;1.83;1.40;;;24.70;99.90;;;;;;5064957;28;20643;-75
2023/07/28 08:32:51;;;;;;;1.63;0.98;;;23.80;99.90;;;;;;5050547;28;20203;-75
2023/07/28 08:35:16;;;;;;;2.47;1.35;;;23.30;99.90;;;;;;5049445;28;20245;-74
2023/07/28 08:37:42;;;;;;;2.20;1.25;;;22.80;99.90;;;;;;5049930;28;20179;-74
2023/07/28 08:40:10;;;;;;;1.20;1.00;;;22.70;99.90;;;;;;5049060;28;20298;-74
2023/07/28 08:42:38;;;;;;;1.63;1.00;;;22.70;99.90;;;;;;5043359;28;20220;-75
2023/07/28 08:45:05;;;;;;;4.63;1.60;;;22.80;99.90;;;;;;5050819;28;20718;-74
2023/07/28 08:47:31;;;;;;;1.77;1.60;;;23.00;99.90;;;;;;5056353;28;20231;-74
2023/07/28 08:49:57;;;;;;;2.10;1.45;;;23.10;99.90;;;;;;5045405;28;20217;-74
2023/07/28 08:52:26;;;;;;;2.40;2.20;;;23.40;99.90;;;;;;5043209;28;20187;-75
2023/07/28 08:54:52;;;;;;;1.10;1.00;;;23.50;99.90;;;;;;5048758;28;20199;-74
2023/07/28 08:57:19;;;;;;;2.20;1.00;;;23.60;99.90;;;;;;5045780;28;20227;-74
2023/07/28 08:59:47;;;;;;;4.28;1.50;;;23.40;99.90;;;;;;5047622;28;20257;-75
2023/07/28 09:02:16;;;;;;;2.95;1.65;;;23.10;99.90;;;;;;5042509;28;20572;-75
2023/07/28 09:04:43;;;;;;;3.85;1.70;;;23.10;99.90;;;;;;5048792;28;20202;-75
2023/07/28 09:07:08;;;;;;;1.70;1.30;;;23.20;99.90;;;;;;5047364;28;20226;-75
2023/07/28 09:09:36;;;;;;;3.63;1.58;;;23.30;99.90;;;;;;5048095;28;20215;-75
2023/07/28 09:12:01;;;;;;;3.17;2.05;;;22.90;99.90;;;;;;5046390;28;20264;-75
2023/07/28 09:14:27;;;;;;;3.97;2.63;;;22.70;99.90;;;;;;5044564;28;20852;-75
2023/07/28 09:16:53;;;;;;;7.43;4.50;;;22.50;99.90;;;;;;5050438;28;20175;-75
2023/07/28 09:19:20;;;;;;;2.35;1.60;;;22.30;99.90;;;;;;5041132;28;20175;-75
2023/07/28 09:22:00;;;;;;;3.53;1.38;;;22.20;99.90;;;;;;5046233;28;20721;-74
2023/07/28 09:24:33;;;;;;;1.98;1.30;;;22.10;99.90;;;;;;5046918;28;20214;-74
2023/07/28 09:26:59;;;;;;;1.58;1.48;;;23.40;99.90;;;;;;5046127;28;20219;-75
2023/07/28 09:29:27;;;;;;;1.45;1.30;;;24.20;99.90;;;;;;5047291;28;20686;-74
2023/07/28 09:32:02;;;;;;;2.30;1.23;;;24.40;99.90;;;;;;5048021;28;20196;-74
2023/07/28 09:34:29;;;;;;;1.27;1.15;;;24.50;99.90;;;;;;5046302;28;20180;-75
2023/07/28 09:36:56;;;;;;;1.67;1.30;;;25.30;99.90;;;;;;5046323;28;20195;-75
2023/07/28 09:39:22;;;;;;;1.40;1.27;;;25.70;99.90;;;;;;5044815;28;20219;-74
2023/07/28 09:41:48;;;;;;;1.50;1.40;;;25.40;99.90;;;;;;5047722;28;20566;-75
2023/07/28 09:44:15;;;;;;;2.22;1.42;;;25.00;99.90;;;;;;5048353;28;20207;-75
2023/07/28 09:46:55;;;;;;;3.28;1.27;;;24.50;99.90;;;;;;5049145;28;20203;-75
2023/07/28 09:49:44;;;;;;;1.50;1.20;;;24.40;99.90;;;;;;5048889;28;20203;-75
2023/07/28 09:52:10;;;;;;;2.90;1.98;;;24.20;99.90;;;;;;5041851;28;20207;-75
2023/07/28 09:54:40;;;;;;;2.28;1.30;;;24.10;99.90;;;;;;5046087;28;20285;-74
2023/07/28 09:57:12;;;;;;;1.98;1.40;;;23.80;99.90;;;;;;5042505;28;20203;-75
2023/07/28 09:59:39;;;;;;;3.97;1.50;;;23.50;99.90;;;;;;5040529;28;20211;-74
2023/07/28 10:02:05;;;;;;;1.52;1.42;;;23.20;99.90;;;;;;5039357;28;20229;-73
2023/07/28 10:04:32;;;;;;;1.60;1.50;;;23.00;99.90;;;;;;5040223;28;20283;-74
2023/07/28 10:06:59;;;;;;;2.55;1.70;;;22.80;99.90;;;;;;5043044;28;20674;-74
2023/07/28 10:09:26;;;;;;;1.80;1.58;;;22.90;99.90;;;;;;5044987;28;20539;-75
2023/07/28 10:11:52;;;;;;;1.95;1.52;;;23.00;99.90;;;;;;5045496;28;20708;-74
2023/07/28 10:14:31;;;;;;;2.33;1.50;;;23.20;99.90;;;;;;5046047;28;20302;-74
2023/07/28 10:16:58;;;;;;;1.98;1.77;;;23.60;99.90;;;;;;5060893;28;20167;-76
2023/07/28 10:19:27;;;;;;;1.48;1.10;;;24.10;99.90;;;;;;5046882;28;20179;-74
2023/07/28 10:22:00;;;;;;;3.17;1.70;;;24.50;99.90;;;;;;5045855;28;20685;-75
2023/07/28 10:24:55;;;;;;;1.75;1.33;;;24.30;99.90;;;;;;5047046;28;20235;-75
2023/07/28 10:27:38;;;;;;;1.98;1.50;;;23.80;99.90;;;;;;5046923;28;20230;-75
2023/07/28 10:30:11;;;;;;;1.63;1.50;;;23.20;99.90;;;;;;5045164;28;20273;-74
2023/07/28 10:32:45;;;;;;;2.50;1.80;;;22.60;99.90;;;;;;5045541;28;20208;-75
2023/07/28 10:35:14;;;;;;;2.17;1.98;;;22.00;99.90;;;;;;5045427;28;20211;-72
2023/07/28 10:37:45;;;;;;;2.20;1.95;;;21.90;99.90;;;;;;5055726;28;20180;-76
2023/07/28 10:40:30;;;;;;;2.80;2.20;;;21.90;99.90;;;;;;5043451;28;20219;-72
2023/07/28 10:42:58;;;;;;;3.40;2.20;;;22.40;99.90;;;;;;5057544;28;20215;-75
2023/07/28 10:45:26;;;;;;;3.28;1.95;;;23.20;99.90;;;;;;5042929;28;20210;-74
2023/07/28 10:47:55;;;;;;;3.08;1.70;;;23.70;99.90;;;;;;5040847;28;20211;-75
2023/07/28 10:50:22;;;;;;;7.10;5.10;;;23.70;99.90;;;;;;5044514;28;20231;-76
2023/07/28 10:52:47;;;;;;;3.25;2.60;;;23.60;99.90;;;;;;5045508;28;20172;-76
2023/07/28 10:55:14;;;;;;;2.20;1.95;;;23.20;99.90;;;;;;5048469;28;20258;-75
2023/07/28 10:57:44;;;;;;;1.50;1.40;;;22.90;99.90;;;;;;5046882;28;20617;-75
2023/07/28 11:00:12;;;;;;;1.58;1.48;;;22.40;99.90;;;;;;5047314;28;20271;-75
2023/07/28 11:02:49;;;;;;;1.38;1.27;;;22.10;99.90;;;;;;5047560;28;20195;-76
2023/07/28 11:05:26;;;;;;;2.20;1.60;;;21.60;99.90;;;;;;5043816;28;20212;-75
2023/07/28 11:07:55;;;;;;;2.60;1.70;;;21.40;99.90;;;;;;5044134;28;20619;-75
2023/07/28 11:10:21;;;;;;;3.47;3.10;;;21.40;99.90;;;;;;5057615;28;20207;-75
2023/07/28 11:12:49;;;;;;;2.22;2.03;;;21.30;99.90;;;;;;5043079;28;20350;-75
2023/07/28 11:15:16;;;;;;;2.47;2.03;;;21.20;99.90;;;;;;5039530;28;20211;-74
2023/07/28 11:17:46;;;;;;;3.08;2.03;;;21.20;99.90;;;;;;5055672;28;20204;-76
2023/07/28 11:20:23;;;;;;;5.65;2.30;;;21.10;99.90;;;;;;5045299;28;20203;-75
2023/07/28 11:22:56;;;;;;;3.17;2.22;;;21.10;99.90;;;;;;5042872;28;20171;-75
2023/07/28 11:25:24;;;;;;;4.32;2.47;;;21.00;99.90;;;;;;5043042;28;20163;-75
2023/07/28 11:27:50;;;;;;;3.35;2.00;;;20.90;99.90;;;;;;5046298;28;20694;-74
2023/07/28 11:30:18;;;;;;;4.38;2.45;;;20.90;99.90;;;;;;5046117;28;20218;-74
2023/07/28 11:32:48;;;;;;;3.92;3.05;;;20.90;99.90;;;;;;5046635;28;20204;-75
2023/07/28 11:35:16;;;;;;;3.78;2.30;;;20.90;99.90;;;;;;5045899;28;20709;-75
2023/07/28 11:37:45;;;;;;;8.20;4.53;;;21.10;99.90;;;;;;5039427;28;20178;-75
2023/07/28 11:40:11;;;;;;;7.75;6.07;;;21.30;99.90;;;;;;5063096;28;20211;-73
2023/07/28 11:42:45;;;;;;;3.20;2.72;;;21.50;99.90;;;;;;5043612;28;20216;-75
2023/07/28 11:45:12;;;;;;;2.45;1.88;;;21.60;99.90;;;;;;5036578;28;20204;-75
2023/07/28 11:47:38;;;;;;;3.25;1.92;;;21.80;99.90;;;;;;5040504;28;20206;-76
2023/07/28 11:50:04;;;;;;;2.53;1.83;;;21.90;99.90;;;;;;5041158;28;20574;-75
2023/07/28 11:52:35;;;;;;;3.22;2.00;;;22.10;99.90;;;;;;5038677;28;20373;-75
2023/07/28 11:55:04;;;;;;;2.75;1.58;;;22.40;99.90;;;;;;5046316;28;20294;-76
2023/07/28 11:57:33;;;;;;;2.78;1.80;;;22.50;99.90;;;;;;5043741;28;20200;-75
2023/07/28 12:00:04;;;;;;;2.05;1.80;;;22.60;99.90;;;;;;5046909;28;20334;-74
2023/07/28 12:02:33;;;;;;;3.15;2.38;;;22.70;99.90;;;;;;5040340;28;20246;-75
2023/07/28 12:04:58;;;;;;;2.45;2.10;;;22.70;99.90;;;;;;5044200;28;20168;-76
2023/07/28 12:07:32;;;;;;;2.00;1.80;;;22.70;99.90;;;;;;5040249;28;20216;-75
2023/07/28 12:10:05;;;;;;;2.08;1.65;;;22.80;99.90;;;;;;5042907;28;20199;-75
2023/07/28 12:12:38;;;;;;;1.70;1.50;;;23.10;99.90;;;;;;5045069;28;20208;-76
2023/07/28 12:15:19;;;;;;;4.68;1.77;;;23.30;99.90;;;;;;5047310;28;20200;-75
2023/07/28 12:18:08;;;;;;;2.60;1.50;;;23.30;99.90;;;;;;5046983;28;20218;-76
2023/07/28 12:20:35;;;;;;;7.32;3.47;;;23.10;99.90;;;;;;5043696;28;20218;-75
2023/07/28 12:23:00;;;;;;;5.10;4.60;;;23.00;99.90;;;;;;5061315;28;20638;-75
2023/07/28 12:25:26;;;;;;;9.10;4.00;;;22.90;99.90;;;;;;5038829;28;20195;-77
2023/07/28 12:27:52;;;;;;;2.75;2.00;;;22.90;99.90;;;;;;5038095;28;20204;-75
2023/07/28 12:30:17;;;;;;;1.65;1.55;;;22.80;99.90;;;;;;5041549;28;20204;-75
2023/07/28 12:32:44;;;;;;;2.55;1.55;;;22.70;99.90;;;;;;5043642;28;20231;-76
2023/07/28 12:35:09;;;;;;;2.08;1.38;;;22.60;99.90;;;;;;5045180;28;20269;-75
2023/07/28 12:37:35;;;;;;;1.60;1.50;;;22.50;99.90;;;;;;5042192;28;20175;-75
2023/07/28 12:40:01;;;;;;;3.28;1.58;;;22.60;99.90;;;;;;5045180;28;20681;-75
2023/07/28 12:42:27;;;;;;;1.67;1.58;;;22.80;99.90;;;;;;5046127;28;20211;-75
2023/07/28 12:44:52;;;;;;;3.60;2.25;;;22.80;99.90;;;;;;5050186;28;20580;-76